createdAt,value
2022-12-03T00:00:33.765Z,-1.00
2022-12-03T00:03:06.957Z,-1.20
2022-12-03T00:05:36.218Z,-1.10
2022-12-03T00:08:14.410Z,-1.10
2022-12-03T00:10:50.450Z,-1.10
2022-12-03T00:13:28.745Z,-1.10
2022-12-03T00:16:04.712Z,-1.10
2022-12-03T00:18:38.785Z,-1.20
2022-12-03T00:21:17.251Z,-1.20
2022-12-03T00:23:51.211Z,-1.20
2022-12-03T00:26:26.034Z,-1.10
2022-12-03T00:29:03.686Z,-1.10
2022-12-03T00:31:39.777Z,-1.00
2022-12-03T00:34:14.124Z,-1.00
2022-12-03T00:36:49.376Z,-1.10
2022-12-03T00:39:28.395Z,-1.10
2022-12-03T00:42:05.697Z,-1.10
2022-12-03T00:44:46.219Z,-1.20
2022-12-03T00:47:22.624Z,-1.20
2022-12-03T00:50:01.475Z,-1.30
2022-12-03T00:52:47.445Z,-1.20
2022-12-03T00:55:42.390Z,-1.20
2022-12-03T00:58:19.141Z,-1.20
2022-12-03T01:01:19.789Z,-1.30
2022-12-03T01:03:53.014Z,-1.30
2022-12-03T01:06:25.566Z,-1.40
2022-12-03T01:08:57.155Z,-1.20
2022-12-03T01:11:39.647Z,-1.20
2022-12-03T01:14:17.079Z,-1.20
2022-12-03T01:16:52.976Z,-1.30
2022-12-03T01:19:29.768Z,-1.30
2022-12-03T01:22:01.344Z,-1.30
2022-12-03T01:24:40.070Z,-1.30
2022-12-03T01:27:09.867Z,-1.20
2022-12-03T01:29:39.866Z,-1.30
2022-12-03T01:32:20.297Z,-1.30
2022-12-03T01:37:36.836Z,-1.40
2022-12-03T01:40:13.620Z,-1.30
2022-12-03T01:42:51.171Z,-1.30
2022-12-03T01:45:32.089Z,-1.30
2022-12-03T01:48:18.997Z,-1.30
2022-12-03T01:50:54.691Z,-1.30
2022-12-03T01:53:24.949Z,-1.30
2022-12-03T01:55:59.040Z,-1.30
2022-12-03T01:58:33.816Z,-1.30
2022-12-03T02:01:13.251Z,-1.30
2022-12-03T02:03:46.557Z,-1.40
2022-12-03T02:06:27.884Z,-1.40
2022-12-03T02:09:06.079Z,-1.30
2022-12-03T02:11:40.985Z,-1.30
2022-12-03T02:14:19.871Z,-1.30
2022-12-03T02:16:51.209Z,-1.30
2022-12-03T02:19:31.740Z,-1.30
2022-12-03T02:22:12.474Z,-1.30
2022-12-03T02:24:52.986Z,-1.30
2022-12-03T02:27:27.390Z,-1.30
2022-12-03T02:30:03.623Z,-1.20
2022-12-03T02:32:33.447Z,-1.20
2022-12-03T02:35:06.763Z,-1.30
2022-12-03T02:37:44.544Z,-1.20
2022-12-03T02:40:20.001Z,-1.30
2022-12-03T02:42:58.890Z,-1.40
2022-12-03T02:45:32.452Z,-1.30
2022-12-03T02:48:11.158Z,-1.30
2022-12-03T02:50:50.305Z,-1.30
2022-12-03T02:53:23.036Z,-1.20
2022-12-03T02:55:59.797Z,-1.30
2022-12-03T02:58:38.355Z,-1.30
2022-12-03T03:01:13.071Z,-1.30
2022-12-03T03:03:43.449Z,-1.20
2022-12-03T03:06:16.937Z,-1.20
2022-12-03T03:08:50.516Z,-1.20
2022-12-03T03:11:25.812Z,-1.10
2022-12-03T03:14:05.664Z,-1.10
2022-12-03T03:16:41.395Z,-1.10
2022-12-03T03:19:14.383Z,-1.20
2022-12-03T03:21:46.806Z,-1.30
2022-12-03T03:24:18.520Z,-1.20
2022-12-03T03:26:56.114Z,-1.20
2022-12-03T03:29:26.959Z,-1.30
2022-12-03T03:32:20.033Z,-1.30
2022-12-03T03:34:51.309Z,-1.30
2022-12-03T03:37:20.876Z,-1.40
2022-12-03T03:39:54.293Z,-1.50
2022-12-03T03:42:25.098Z,-1.40
2022-12-03T03:45:01.907Z,-1.40
2022-12-03T03:47:35.849Z,-1.40
2022-12-03T03:50:09.038Z,-1.40
2022-12-03T03:52:43.967Z,-1.30
2022-12-03T03:55:14.561Z,-1.30
2022-12-03T03:57:47.717Z,-1.40
2022-12-03T04:00:24.472Z,-1.50
2022-12-03T04:03:00.796Z,-1.40
2022-12-03T04:05:35.541Z,-1.40
2022-12-03T04:08:09.914Z,-1.30
2022-12-03T04:11:00.513Z,-1.30
2022-12-03T04:13:30.487Z,-1.30
2022-12-03T04:16:10.762Z,-1.30
2022-12-03T04:18:48.403Z,-1.40
2022-12-03T04:21:39.730Z,-1.40
2022-12-03T04:24:12.682Z,-1.40
2022-12-03T04:27:01.377Z,-1.30
2022-12-03T04:29:35.405Z,-1.20
2022-12-03T04:32:26.035Z,-1.10
2022-12-03T04:35:15.084Z,-1.40
2022-12-03T04:37:45.541Z,-1.40
2022-12-03T04:40:29.196Z,-1.40
2022-12-03T04:42:59.145Z,-1.40
2022-12-03T04:45:28.016Z,-1.40
2022-12-03T04:48:01.292Z,-1.30
2022-12-03T04:50:31.495Z,-1.30
2022-12-03T04:53:04.652Z,-1.20
2022-12-03T04:55:37.873Z,-1.20
2022-12-03T04:58:13.800Z,-1.20
2022-12-03T05:00:49.577Z,-1.20
2022-12-03T05:03:24.408Z,-1.30
2022-12-03T05:05:58.782Z,-1.20
2022-12-03T05:08:32.089Z,-1.20
2022-12-03T05:11:04.788Z,-1.10
2022-12-03T05:13:50.081Z,-1.10
2022-12-03T05:16:26.739Z,-1.30
2022-12-03T05:19:08.867Z,-1.20
2022-12-03T05:21:38.583Z,-1.20
2022-12-03T05:24:09.573Z,-1.10
2022-12-03T05:26:46.383Z,-1.20
2022-12-03T05:29:18.376Z,-1.30
2022-12-03T05:31:52.634Z,-1.30
2022-12-03T05:34:22.274Z,-1.30
2022-12-03T05:36:54.605Z,-1.20
2022-12-03T05:39:25.444Z,-1.20
2022-12-03T05:42:17.557Z,-1.10
2022-12-03T05:44:52.776Z,-1.20
2022-12-03T05:47:25.485Z,-1.10
2022-12-03T05:49:57.725Z,-1.20
2022-12-03T05:52:46.659Z,-1.10
2022-12-03T05:55:20.409Z,-1.20
2022-12-03T05:57:49.588Z,-1.30
2022-12-03T06:00:23.141Z,-1.30
2022-12-03T06:02:54.301Z,-1.30
2022-12-03T06:05:30.396Z,-1.30
2022-12-03T06:07:59.431Z,-1.30
2022-12-03T06:10:32.948Z,-1.40
2022-12-03T06:13:06.372Z,-1.30
2022-12-03T06:15:40.428Z,-1.30
2022-12-03T06:18:15.379Z,-1.20
2022-12-03T06:20:46.624Z,-1.20
2022-12-03T06:23:16.973Z,-1.30
2022-12-03T06:25:51.835Z,-1.30
2022-12-03T06:28:28.975Z,-1.30
2022-12-03T06:31:00.410Z,-1.40
2022-12-03T06:33:33.301Z,-1.40
2022-12-03T06:36:03.550Z,-1.30
2022-12-03T06:38:33.605Z,-1.40
2022-12-03T06:41:02.432Z,-1.50
2022-12-03T06:44:24.924Z,-1.40
2022-12-03T06:46:56.540Z,-1.40
2022-12-03T06:49:32.577Z,-1.40
2022-12-03T06:52:03.303Z,-1.50
2022-12-03T06:54:39.343Z,-1.50
2022-12-03T06:57:15.029Z,-1.50
2022-12-03T06:59:52.254Z,-1.50
2022-12-03T07:02:23.786Z,-1.60
2022-12-03T07:04:55.665Z,-1.60
2022-12-03T07:07:42.844Z,-1.60
2022-12-03T07:10:15.448Z,-1.70
2022-12-03T07:12:49.475Z,-1.70
2022-12-03T07:15:17.842Z,-1.70
2022-12-03T07:17:46.217Z,-1.60
2022-12-03T07:20:15.192Z,-1.70
2022-12-03T07:22:50.435Z,-1.70
2022-12-03T07:25:23.513Z,-1.70
2022-12-03T07:27:52.382Z,-1.60
2022-12-03T07:30:20.669Z,-1.70
2022-12-03T07:32:49.052Z,-1.60
2022-12-03T07:35:17.469Z,-1.60
2022-12-03T07:37:47.127Z,-1.50
2022-12-03T07:40:15.678Z,-1.50
2022-12-03T07:42:43.857Z,-1.50
2022-12-03T07:45:12.587Z,-1.60
2022-12-03T07:47:40.903Z,-1.50
2022-12-03T07:50:10.348Z,-1.50
2022-12-03T07:52:38.552Z,-1.60
2022-12-03T07:55:09.183Z,-1.60
2022-12-03T07:57:37.562Z,-1.60
2022-12-03T08:00:07.502Z,-1.60
2022-12-03T08:02:35.672Z,-1.70
2022-12-03T08:05:03.984Z,-1.60
2022-12-03T08:07:32.443Z,-1.60
2022-12-03T08:10:00.713Z,-1.60
2022-12-03T08:12:40.965Z,-1.60
2022-12-03T08:15:15.796Z,-1.50
2022-12-03T08:17:45.916Z,-1.50
2022-12-03T08:20:18.874Z,-1.50
2022-12-03T08:22:49.567Z,-1.50
2022-12-03T08:25:23.343Z,-1.50
2022-12-03T08:27:55.043Z,-1.50
2022-12-03T08:30:23.540Z,-1.60
2022-12-03T08:32:52.967Z,-1.50
2022-12-03T08:35:24.735Z,-1.40
2022-12-03T08:38:02.511Z,-1.40
2022-12-03T08:40:35.805Z,-1.40
2022-12-03T08:43:14.104Z,-1.30
2022-12-03T08:45:44.215Z,-1.50
2022-12-03T08:48:33.620Z,-1.50
2022-12-03T08:51:06.076Z,-1.50
2022-12-03T08:53:36.773Z,-1.40
2022-12-03T08:56:14.628Z,-1.40
2022-12-03T08:58:47.472Z,-1.40
2022-12-03T09:01:44.426Z,-1.40
2022-12-03T09:04:27.595Z,-1.50
2022-12-03T09:06:56.567Z,-1.50
2022-12-03T09:09:25.575Z,-1.60
2022-12-03T09:11:54.879Z,-1.50
2022-12-03T09:14:24.610Z,-1.30
2022-12-03T09:16:56.122Z,-1.40
2022-12-03T09:19:25.590Z,-1.40
2022-12-03T09:21:54.520Z,-1.40
2022-12-03T09:24:22.731Z,-1.50
2022-12-03T09:26:54.128Z,-1.60
2022-12-03T09:29:23.943Z,-1.50
2022-12-03T09:31:52.259Z,-1.30
2022-12-03T09:34:20.652Z,-1.30
2022-12-03T09:36:48.850Z,-1.30
2022-12-03T09:39:18.355Z,-1.40
2022-12-03T09:41:46.798Z,-1.50
2022-12-03T09:44:17.973Z,-1.30
2022-12-03T09:46:49.298Z,-1.30
2022-12-03T09:49:19.492Z,-1.30
2022-12-03T09:51:48.603Z,-1.30
2022-12-03T09:54:24.600Z,-1.40
2022-12-03T09:56:53.712Z,-1.50
2022-12-03T09:59:23.834Z,-1.40
2022-12-03T10:01:53.825Z,-1.40
2022-12-03T10:04:22.488Z,-1.30
2022-12-03T10:06:50.945Z,-1.50
2022-12-03T10:09:31.399Z,-1.40
2022-12-03T10:12:01.060Z,-1.40
2022-12-03T10:14:29.739Z,-1.40
2022-12-03T10:16:59.955Z,-1.50
2022-12-03T10:19:31.762Z,-1.40
2022-12-03T10:22:00.561Z,-1.40
2022-12-03T10:24:30.302Z,-1.40
2022-12-03T10:27:00.439Z,-1.60
2022-12-03T10:29:34.058Z,-1.50
2022-12-03T10:32:07.135Z,-1.50
2022-12-03T10:34:37.968Z,-1.40
2022-12-03T10:37:15.475Z,-1.40
2022-12-03T10:39:58.657Z,-1.40
2022-12-03T10:42:29.090Z,-1.50
2022-12-03T10:45:19.160Z,-1.40
2022-12-03T10:48:05.849Z,-1.40
2022-12-03T10:50:36.342Z,-1.50
2022-12-03T10:53:05.489Z,-1.60
2022-12-03T10:55:38.021Z,-1.70
2022-12-03T10:58:19.860Z,-1.50
2022-12-03T11:00:48.251Z,-1.60
2022-12-03T11:03:23.140Z,-1.70
2022-12-03T11:05:52.930Z,-1.70
2022-12-03T11:08:23.989Z,-1.50
2022-12-03T11:11:00.958Z,-1.50
2022-12-03T11:13:43.542Z,-1.50
2022-12-03T11:16:11.840Z,-1.60
2022-12-03T11:19:02.278Z,-1.60
2022-12-03T11:21:31.184Z,-1.70
2022-12-03T11:24:20.952Z,-1.50
2022-12-03T11:27:29.069Z,-1.50
2022-12-03T11:30:02.208Z,-1.60
2022-12-03T11:33:01.760Z,-1.50
2022-12-03T11:35:51.349Z,-1.40
2022-12-03T11:38:55.814Z,-1.50
2022-12-03T11:41:31.621Z,-1.50
2022-12-03T11:44:32.692Z,-1.50
2022-12-03T11:47:09.715Z,-1.40
2022-12-03T11:49:48.245Z,-1.50
2022-12-03T11:52:24.739Z,-1.60
2022-12-03T11:54:58.736Z,-1.60
2022-12-03T11:57:34.199Z,-1.60
2022-12-03T12:00:07.623Z,-1.60
2022-12-03T12:02:35.897Z,-1.60
2022-12-03T12:05:19.416Z,-1.50
2022-12-03T12:07:49.571Z,-1.60
2022-12-03T12:10:39.581Z,-1.50
2022-12-03T12:13:07.940Z,-1.60
2022-12-03T12:15:45.634Z,-1.50
2022-12-03T12:18:36.465Z,-1.50
2022-12-03T12:21:42.356Z,-1.60
2022-12-03T12:24:31.867Z,-1.70
2022-12-03T12:27:01.515Z,-1.60
2022-12-03T12:29:29.792Z,-1.50
2022-12-03T12:32:19.515Z,-1.50
2022-12-03T12:34:50.139Z,-1.60
2022-12-03T12:37:23.922Z,-1.50
2022-12-03T12:39:57.267Z,-1.40
2022-12-03T12:42:36.227Z,-1.30
2022-12-03T12:45:15.381Z,-1.40
2022-12-03T12:47:49.776Z,-1.30
2022-12-03T12:50:19.756Z,-1.10
2022-12-03T12:52:54.863Z,-1.10
2022-12-03T12:55:27.476Z,-1.30
2022-12-03T12:58:01.846Z,-1.20
2022-12-03T13:00:30.167Z,-1.10
2022-12-03T13:03:01.214Z,-1.10
2022-12-03T13:05:37.042Z,-1.10
2022-12-03T13:08:21.626Z,-1.30
2022-12-03T13:10:52.722Z,-1.20
2022-12-03T13:13:24.768Z,-1.30
2022-12-03T13:15:59.736Z,-1.20
2022-12-03T13:18:33.562Z,-1.20
2022-12-03T13:21:14.416Z,-1.10
2022-12-03T13:23:42.730Z,-1.10
2022-12-03T13:26:32.767Z,-1.20
2022-12-03T13:29:08.139Z,-1.20
2022-12-03T13:31:43.468Z,-1.20
2022-12-03T13:34:17.429Z,-1.10
2022-12-03T13:36:51.990Z,-1.10
2022-12-03T13:39:28.222Z,-1.00
2022-12-03T13:42:19.165Z,-1.00
2022-12-03T13:44:50.397Z,-1.00
2022-12-03T13:47:22.717Z,-1.10
2022-12-03T13:49:53.986Z,-1.40
2022-12-03T13:52:24.467Z,-1.40
2022-12-03T13:54:54.805Z,-1.30
2022-12-03T13:57:25.021Z,-1.40
2022-12-03T13:59:53.551Z,-1.50
2022-12-03T14:02:22.153Z,-1.50
2022-12-03T14:04:52.138Z,-1.50
2022-12-03T14:07:23.653Z,-1.40
2022-12-03T14:09:52.170Z,-1.40
2022-12-03T14:12:26.924Z,-1.40
2022-12-03T14:14:57.204Z,-1.40
2022-12-03T14:17:25.417Z,-1.20
2022-12-03T14:19:54.019Z,-1.30
2022-12-03T14:22:25.264Z,-1.40
2022-12-03T14:24:54.102Z,-1.50
2022-12-03T14:27:22.857Z,-1.40
2022-12-03T14:29:51.745Z,-1.30
2022-12-03T14:32:21.824Z,-1.30
2022-12-03T14:34:50.112Z,-1.30
2022-12-03T14:37:18.428Z,-1.40
2022-12-03T14:39:46.716Z,-1.40
2022-12-03T14:42:14.947Z,-1.40
2022-12-03T14:44:44.666Z,-1.40
2022-12-03T14:47:13.666Z,-1.60
2022-12-03T14:49:43.392Z,-1.40
2022-12-03T14:52:12.661Z,-1.40
2022-12-03T14:54:42.230Z,-1.40
2022-12-03T14:57:12.447Z,-1.40
2022-12-03T14:59:40.884Z,-1.40
2022-12-03T15:02:09.466Z,-1.30
2022-12-03T15:04:37.930Z,-1.40
2022-12-03T15:07:08.080Z,-1.50
2022-12-03T15:09:36.568Z,-1.50
2022-12-03T15:12:05.159Z,-1.50
2022-12-03T15:14:34.109Z,-1.50
2022-12-03T15:17:02.395Z,-1.50
2022-12-03T15:19:31.006Z,-1.60
2022-12-03T15:22:02.351Z,-1.50
2022-12-03T15:24:31.964Z,-1.60
2022-12-03T15:27:00.225Z,-1.50
2022-12-03T15:29:29.084Z,-1.50
2022-12-03T15:31:59.305Z,-1.50
2022-12-03T15:34:28.324Z,-1.60
2022-12-03T15:36:56.786Z,-1.60
2022-12-03T15:39:25.126Z,-1.70
2022-12-03T15:41:55.467Z,-1.60
2022-12-03T15:44:23.906Z,-1.60
2022-12-03T15:46:53.705Z,-1.70
2022-12-03T15:49:30.029Z,-1.70
2022-12-03T15:52:02.262Z,-1.70
2022-12-03T15:54:30.868Z,-1.70
2022-12-03T15:57:01.040Z,-1.80
2022-12-03T15:59:29.487Z,-1.70
2022-12-03T16:02:02.226Z,-1.70
2022-12-03T16:04:40.826Z,-1.70
2022-12-03T16:07:09.594Z,-1.80
2022-12-03T16:09:45.370Z,-1.80
2022-12-03T16:12:18.974Z,-1.80
2022-12-03T16:14:50.127Z,-1.80
2022-12-03T16:17:23.513Z,-1.80
2022-12-03T16:19:56.354Z,-1.80
2022-12-03T16:22:47.721Z,-1.80
2022-12-03T16:25:26.100Z,-1.90
2022-12-03T16:28:06.001Z,-1.80
2022-12-03T16:30:43.361Z,-1.80
2022-12-03T16:33:11.916Z,-1.80
2022-12-03T16:35:40.904Z,-1.80
2022-12-03T16:38:14.329Z,-1.80
2022-12-03T16:41:14.023Z,-1.80
2022-12-03T16:43:51.357Z,-1.80
2022-12-03T16:46:26.675Z,-1.70
2022-12-03T16:48:59.713Z,-1.80
2022-12-03T16:51:34.931Z,-1.80
2022-12-03T16:54:12.064Z,-1.70
2022-12-03T16:56:54.064Z,-1.70
2022-12-03T16:59:32.853Z,-1.70
2022-12-03T17:02:02.203Z,-1.70
2022-12-03T17:04:30.859Z,-1.70
2022-12-03T17:06:59.160Z,-1.70
2022-12-03T17:09:37.410Z,-1.70
2022-12-03T17:12:09.031Z,-1.70
2022-12-03T17:14:40.587Z,-1.70
2022-12-03T17:17:10.315Z,-1.80
2022-12-03T17:19:40.185Z,-1.80
2022-12-03T17:22:13.436Z,-1.80
2022-12-03T17:24:41.930Z,-1.80
2022-12-03T17:27:11.572Z,-1.70
2022-12-03T17:29:52.073Z,-1.70
2022-12-03T17:32:22.031Z,-1.80
2022-12-03T17:34:51.472Z,-1.80
2022-12-03T17:37:26.732Z,-1.80
2022-12-03T17:40:04.571Z,-1.80
2022-12-03T17:42:34.125Z,-1.80
2022-12-03T17:45:09.619Z,-1.70
2022-12-03T17:47:38.770Z,-1.70
2022-12-03T17:50:27.895Z,-1.70
2022-12-03T17:53:10.470Z,-1.70
2022-12-03T17:55:45.004Z,-1.70
2022-12-03T17:58:22.483Z,-1.80
2022-12-03T18:01:03.983Z,-1.80
2022-12-03T18:03:37.334Z,-1.80
2022-12-03T18:06:26.973Z,-1.80
2022-12-03T18:08:55.323Z,-1.70
2022-12-03T18:11:24.614Z,-1.80
2022-12-03T18:14:33.186Z,-1.80
2022-12-03T18:17:14.335Z,-1.70
2022-12-03T18:19:42.772Z,-1.70
2022-12-03T18:22:11.236Z,-1.70
2022-12-03T18:24:40.093Z,-1.80
2022-12-03T18:27:08.380Z,-1.80
2022-12-03T18:29:36.606Z,-1.70
2022-12-03T18:32:27.192Z,-1.80
2022-12-03T18:34:56.650Z,-1.80
2022-12-03T18:37:28.067Z,-1.80
2022-12-03T18:39:57.780Z,-1.80
2022-12-03T18:42:27.146Z,-1.80
2022-12-03T18:44:58.071Z,-1.80
2022-12-03T18:47:29.876Z,-1.60
2022-12-03T18:49:58.408Z,-1.70
2022-12-03T18:52:27.292Z,-1.60
2022-12-03T18:54:56.194Z,-1.70
2022-12-03T18:57:24.679Z,-1.80
2022-12-03T18:59:53.191Z,-1.80
2022-12-03T19:05:12.937Z,-1.80
2022-12-03T19:07:43.285Z,-1.80
2022-12-03T19:10:13.073Z,-1.80
2022-12-03T19:12:42.007Z,-1.80
2022-12-03T19:15:11.413Z,-1.70
2022-12-03T19:17:40.521Z,-1.70
2022-12-03T19:20:11.860Z,-1.80
2022-12-03T19:22:40.878Z,-1.70
2022-12-03T19:25:09.926Z,-1.70
2022-12-03T19:27:38.123Z,-1.70
2022-12-03T19:30:11.394Z,-1.80
2022-12-03T19:32:39.706Z,-1.80
2022-12-03T19:35:11.091Z,-1.90
2022-12-03T19:37:41.546Z,-1.90
2022-12-03T19:40:11.932Z,-1.90
2022-12-03T19:42:41.026Z,-1.80
2022-12-03T19:45:10.677Z,-1.80
2022-12-03T19:47:39.244Z,-1.70
2022-12-03T19:50:09.163Z,-1.70
2022-12-03T19:52:37.614Z,-1.80
2022-12-03T19:55:08.257Z,-1.70
2022-12-03T19:57:39.624Z,-1.80
2022-12-03T20:00:09.710Z,-1.80
2022-12-03T20:02:38.047Z,-1.70
2022-12-03T20:05:12.459Z,-1.80
2022-12-03T20:07:40.779Z,-1.80
2022-12-03T20:10:11.354Z,-1.80
2022-12-03T20:12:39.549Z,-1.90
2022-12-03T20:15:08.497Z,-1.90
2022-12-03T20:17:37.355Z,-1.90
2022-12-03T20:20:06.959Z,-1.90
2022-12-03T20:22:35.513Z,-1.80
2022-12-03T20:25:05.072Z,-1.90
2022-12-03T20:27:35.009Z,-1.80
2022-12-03T20:30:03.197Z,-1.80
2022-12-03T20:32:31.436Z,-1.70
2022-12-03T20:34:59.989Z,-1.70
2022-12-03T20:37:28.604Z,-1.70
2022-12-03T20:39:57.159Z,-1.80
2022-12-03T20:42:26.012Z,-1.80
2022-12-03T20:44:56.553Z,-1.80
2022-12-03T20:47:25.823Z,-1.80
2022-12-03T20:49:59.649Z,-1.60
2022-12-03T20:52:37.721Z,-1.80
2022-12-03T20:55:11.349Z,-1.70
2022-12-03T20:57:41.542Z,-1.70
2022-12-03T21:00:15.831Z,-1.60
2022-12-03T21:02:47.900Z,-1.60
2022-12-03T21:05:19.805Z,-1.60
2022-12-03T21:07:53.132Z,-1.60
2022-12-03T21:10:46.075Z,-1.60
2022-12-03T21:13:18.032Z,-1.60
2022-12-03T21:15:49.647Z,-1.60
2022-12-03T21:18:22.390Z,-1.60
2022-12-03T21:20:53.347Z,-1.40
2022-12-03T21:23:30.455Z,-1.40
2022-12-03T21:26:10.522Z,-1.50
2022-12-03T21:28:44.029Z,-1.40
2022-12-03T21:31:19.354Z,-1.40
2022-12-03T21:33:49.127Z,-1.40
2022-12-03T21:36:19.842Z,-1.30
2022-12-03T21:38:50.032Z,-1.50
2022-12-03T21:41:25.099Z,-1.50
2022-12-03T21:43:59.648Z,-1.50
2022-12-03T21:47:10.721Z,-1.50
2022-12-03T21:49:22.882Z,-1.50
2022-12-03T21:52:00.373Z,-1.60
2022-12-03T21:54:38.296Z,-1.60
2022-12-03T21:57:20.182Z,-1.50
2022-12-03T22:00:07.544Z,-1.60
2022-12-03T22:02:40.578Z,-1.60
2022-12-03T22:05:29.014Z,-1.60
2022-12-03T22:08:07.536Z,-1.60
2022-12-03T22:10:46.206Z,-1.60
2022-12-03T22:13:23.002Z,-1.50
2022-12-03T22:15:56.082Z,-1.50
2022-12-03T22:18:38.524Z,-1.50
2022-12-03T22:21:09.496Z,-1.70
2022-12-03T22:23:44.796Z,-1.60
2022-12-03T22:26:30.761Z,-1.60
2022-12-03T22:29:12.725Z,-1.50
2022-12-03T22:31:49.541Z,-1.50
2022-12-03T22:34:28.108Z,-1.50
2022-12-03T22:36:59.423Z,-1.50
2022-12-03T22:39:36.092Z,-1.50
2022-12-03T22:42:08.537Z,-1.50
2022-12-03T22:44:43.895Z,-1.40
2022-12-03T22:47:42.285Z,-1.40
2022-12-03T22:50:19.555Z,-1.30
2022-12-03T22:53:02.247Z,-1.40
2022-12-03T22:55:40.425Z,-1.30
2022-12-03T22:58:29.869Z,-1.40
2022-12-03T23:01:08.960Z,-1.30
2022-12-03T23:03:42.750Z,-1.30
2022-12-03T23:06:17.816Z,-1.40
2022-12-03T23:08:57.461Z,-1.30
2022-12-03T23:11:28.642Z,-1.20
2022-12-03T23:14:01.053Z,-1.40
2022-12-03T23:16:39.841Z,-1.40
2022-12-03T23:19:10.489Z,-1.30
2022-12-03T23:21:45.980Z,-1.30
2022-12-03T23:24:16.015Z,-1.20
2022-12-03T23:26:48.467Z,-1.30
2022-12-03T23:29:27.065Z,-1.30
2022-12-03T23:32:21.740Z,-1.30
2022-12-03T23:35:02.790Z,-1.30
2022-12-03T23:37:53.168Z,-1.30
2022-12-03T23:40:29.727Z,-1.30
2022-12-03T23:43:06.142Z,-1.20
2022-12-03T23:45:35.311Z,-1.20
2022-12-03T23:48:05.447Z,-1.30
2022-12-03T23:50:43.790Z,-1.20
2022-12-03T23:53:29.635Z,-1.20
2022-12-03T23:56:03.903Z,-1.20
2022-12-03T23:58:44.805Z,-1.20
